KMAF

Midland International Air and Space Port Airport

Midland, Texas, USA
KMAF 181121Z 1812/1912 13005KT P6SM FEW120 SCT200 FM181600 16010KT P6SM SCT060 SCT200
Issued Valid From Valid To
Jun-18 @ 11:21 UTC
(2 hours ago)
Jun-18 @ 12:00 UTC
(an hour ago)
Jun-19 @ 12:00 UTC
(in 23 hours)
Jun-18 @ 12:00 to Jun-18 @ 16:00
KMAF 181121Z 1812/1912 13005KT P6SM FEW120 SCT200
Wind Visibility Clouds
130° at 5 knots Greater than 6 miles
  • Few at 12,000' AGL
  • Scattered at 20,000' AGL
From Jun-18 @ 16:00 to Jun-19 @ 12:00
FM181600 16010KT P6SM SCT060 SCT200
Wind Visibility Clouds
160° at 10 knots Greater than 6 miles
  • Scattered at 6,000' AGL
  • Scattered at 20,000' AGL
KMAF 181121Z 1812/1912 13005KT P6SM FEW120 SCT200 FM181600 16010KT P6SM SCT060 SCT200
Issued Jun-18 @ 11:21 UTC
(2 hours ago)
Valid From Jun-18 @ 12:00 UTC
(an hour ago)
Valid To Jun-19 @ 12:00 UTC
(in 23 hours)
Jun-18 @ 12:00 - Jun-18 @ 16:00
Wind Visibility
130° at 5 knots Greater than 6 miles
Clouds
  • Few at 12,000' AGL
  • Scattered at 20,000' AGL
From Jun-18 @ 16:00 - Jun-19 @ 12:00
Wind Visibility
160° at 10 knots Greater than 6 miles
Clouds
  • Scattered at 6,000' AGL
  • Scattered at 20,000' AGL